Time;durP1;ratioP1;P1;durP2;ratioP2;P2;SDS_P1;SDS_P2;PMS_P1;PMS_P2;Temp;Humidity;BMP_temperature;BMP_pressure;BME280_temperature;BME280_humidity;BME280_pressure;Samples;Min_cycle;Max_cycle;Signal;HPM_P1;HPM_P2
2021/12/23 00:02:08;;;;;;;31.13;18.40;;;-1.20;99.90;;;;;;5071297;28;20227;-68
2021/12/23 00:04:35;;;;;;;37.97;19.07;;;-1.20;99.90;;;;;;5071609;28;20219;-68
2021/12/23 00:07:02;;;;;;;34.80;18.03;;;-1.20;99.90;;;;;;5075239;28;20661;-68
2021/12/23 00:09:51;;;;;;;36.50;18.70;;;-1.10;99.90;;;;;;5078624;28;20209;-69
2021/12/23 00:12:16;;;;;;;34.50;17.83;;;-1.20;99.90;;;;;;5055701;28;20228;-68
2021/12/23 00:14:45;;;;;;;33.77;18.87;;;-1.20;99.90;;;;;;5071308;28;20213;-68
2021/12/23 00:17:21;;;;;;;34.83;19.37;;;-1.20;99.90;;;;;;5071386;28;20245;-68
2021/12/23 00:19:59;;;;;;;35.37;18.77;;;-1.20;99.90;;;;;;5073765;28;20204;-67
2021/12/23 00:25:11;;;;;;;35.97;18.77;;;-1.20;99.90;;;;;;5063743;28;20747;-68
2021/12/23 00:27:38;;;;;;;34.00;17.90;;;-1.10;99.90;;;;;;5070692;28;20232;-67
2021/12/23 00:30:08;;;;;;;37.07;19.03;;;-1.10;99.90;;;;;;5070453;28;20201;-67
2021/12/23 00:32:35;;;;;;;37.00;19.30;;;-1.10;99.90;;;;;;5070666;28;20211;-67
2021/12/23 00:35:03;;;;;;;35.97;17.30;;;-1.10;99.90;;;;;;5069988;28;20258;-68
2021/12/23 00:37:36;;;;;;;34.33;17.90;;;-1.00;99.90;;;;;;5071151;28;20215;-68
2021/12/23 00:40:04;;;;;;;36.97;18.73;;;-1.00;99.90;;;;;;5074458;28;20213;-67
2021/12/23 00:42:33;;;;;;;33.70;17.80;;;-1.10;99.90;;;;;;5074211;28;20587;-67
2021/12/23 00:45:00;;;;;;;34.60;17.70;;;-1.10;99.90;;;;;;5073832;28;20278;-67
2021/12/23 00:47:28;;;;;;;34.43;17.70;;;-1.10;99.90;;;;;;5074017;28;20233;-67
2021/12/23 00:49:55;;;;;;;32.83;18.23;;;-1.10;99.90;;;;;;5061621;28;20635;-67
2021/12/23 00:52:28;;;;;;;33.57;18.23;;;-1.10;99.90;;;;;;5074096;28;20205;-68
2021/12/23 00:54:55;;;;;;;36.93;19.33;;;-1.20;99.90;;;;;;5073682;28;20224;-67
2021/12/23 00:57:26;;;;;;;38.30;19.37;;;-1.20;99.90;;;;;;5074515;28;20227;-67
2021/12/23 00:59:54;;;;;;;36.90;18.77;;;-1.20;99.90;;;;;;5073803;28;20728;-67
2021/12/23 01:02:23;;;;;;;35.50;18.60;;;-1.20;99.90;;;;;;5074117;28;20210;-68
2021/12/23 01:04:52;;;;;;;36.23;18.33;;;-1.20;99.90;;;;;;5076353;28;20212;-67
2021/12/23 01:07:18;;;;;;;39.87;19.30;;;-1.20;99.90;;;;;;5081017;28;20672;-67
2021/12/23 01:09:45;;;;;;;32.27;17.00;;;-1.20;99.90;;;;;;5073602;28;20209;-67
2021/12/23 01:12:16;;;;;;;29.97;17.23;;;-1.20;99.90;;;;;;5073991;28;20205;-66
2021/12/23 01:14:53;;;;;;;34.03;17.37;;;-1.20;99.90;;;;;;5073404;28;20288;-67
2021/12/23 01:17:52;;;;;;;31.90;17.20;;;-1.20;99.90;;;;;;5073807;28;20201;-67
2021/12/23 01:20:25;;;;;;;32.20;15.93;;;-1.20;99.90;;;;;;5079581;28;20254;-68
2021/12/23 01:22:52;;;;;;;32.10;17.13;;;-1.30;99.90;;;;;;5073899;28;20606;-67
2021/12/23 01:25:19;;;;;;;31.73;16.83;;;-1.20;99.90;;;;;;5074313;28;20764;-67
2021/12/23 01:27:46;;;;;;;28.23;16.03;;;-1.20;99.90;;;;;;5074262;28;20284;-67
2021/12/23 01:30:13;;;;;;;31.07;16.97;;;-1.20;99.90;;;;;;5073774;28;20212;-67
2021/12/23 01:32:41;;;;;;;28.10;14.73;;;-1.20;99.90;;;;;;5071611;28;20555;-67
2021/12/23 01:35:08;;;;;;;28.70;15.57;;;-1.20;99.90;;;;;;5076280;28;20198;-67
2021/12/23 01:37:36;;;;;;;34.10;15.70;;;-1.30;99.90;;;;;;5072994;28;20577;-67
2021/12/23 01:40:04;;;;;;;32.00;16.80;;;-1.30;99.90;;;;;;5073863;28;20211;-63
2021/12/23 01:42:31;;;;;;;31.10;16.90;;;-1.30;99.90;;;;;;5074004;28;20205;-64
2021/12/23 01:44:58;;;;;;;35.03;16.27;;;-1.30;99.90;;;;;;5074011;28;20300;-64
2021/12/23 01:47:25;;;;;;;35.97;17.33;;;-1.40;99.90;;;;;;5074414;28;20308;-64
2021/12/23 01:49:52;;;;;;;35.30;18.60;;;-1.40;99.90;;;;;;5074202;28;20205;-64
2021/12/23 01:52:20;;;;;;;31.07;17.50;;;-1.40;99.90;;;;;;5073940;28;20296;-63
2021/12/23 01:54:49;;;;;;;36.60;17.93;;;-1.30;99.90;;;;;;5074374;28;20217;-64
2021/12/23 01:57:17;;;;;;;33.93;17.27;;;-1.30;99.90;;;;;;5074186;28;20231;-63
2021/12/23 01:59:44;;;;;;;31.13;18.63;;;-1.30;99.90;;;;;;5073946;28;20300;-63
2021/12/23 02:02:12;;;;;;;32.87;17.50;;;-1.30;99.90;;;;;;5073164;28;20201;-63
2021/12/23 02:04:39;;;;;;;32.83;17.83;;;-1.30;99.90;;;;;;5078035;28;20287;-64
2021/12/23 02:07:05;;;;;;;35.00;17.37;;;-1.30;99.90;;;;;;5073829;28;20216;-64
2021/12/23 02:09:32;;;;;;;34.33;17.77;;;-1.40;99.90;;;;;;5074011;28;20556;-63
2021/12/23 02:12:01;;;;;;;31.73;17.13;;;-1.40;99.90;;;;;;5074247;28;20637;-64
2021/12/23 02:14:28;;;;;;;29.97;16.43;;;-1.40;99.90;;;;;;5074914;28;20201;-64
2021/12/23 02:16:54;;;;;;;33.70;17.13;;;-1.40;99.90;;;;;;5074818;28;20820;-64
2021/12/23 02:19:22;;;;;;;32.57;17.27;;;-1.40;99.90;;;;;;5073189;28;20201;-63
2021/12/23 02:21:50;;;;;;;30.27;16.07;;;-1.50;99.90;;;;;;5078565;28;20208;-65
2021/12/23 02:24:17;;;;;;;36.17;17.13;;;-1.50;99.90;;;;;;5074392;28;20621;-65
2021/12/23 02:26:44;;;;;;;30.63;17.47;;;-1.50;99.90;;;;;;5073720;28;20271;-64
2021/12/23 02:29:11;;;;;;;29.13;16.77;;;-1.50;99.90;;;;;;5083674;28;20241;-64
2021/12/23 02:31:38;;;;;;;32.40;17.30;;;-1.50;99.90;;;;;;5073374;28;20209;-64
2021/12/23 02:34:05;;;;;;;30.30;15.87;;;-1.50;99.90;;;;;;5074606;28;20209;-64
2021/12/23 02:36:32;;;;;;;31.27;16.70;;;-1.50;99.90;;;;;;5074639;28;20224;-63
2021/12/23 02:39:01;;;;;;;29.53;15.93;;;-1.50;99.90;;;;;;5074245;28;20201;-64
2021/12/23 02:41:28;;;;;;;32.00;17.47;;;-1.60;99.90;;;;;;5073806;28;20208;-63
2021/12/23 02:43:55;;;;;;;30.67;16.30;;;-1.60;99.90;;;;;;5074204;28;20209;-64
2021/12/23 02:46:21;;;;;;;32.57;17.13;;;-1.70;99.90;;;;;;5073575;28;20216;-63
2021/12/23 02:48:48;;;;;;;32.93;16.50;;;-1.70;99.90;;;;;;5073098;28;20610;-64
2021/12/23 02:51:16;;;;;;;36.50;17.63;;;-1.80;99.90;;;;;;5073337;28;20219;-63
2021/12/23 02:53:45;;;;;;;31.87;16.63;;;-1.80;99.90;;;;;;5073909;28;20215;-64
2021/12/23 02:56:15;;;;;;;28.03;15.73;;;-1.80;99.90;;;;;;5073465;28;20225;-64
2021/12/23 02:58:44;;;;;;;34.50;17.43;;;-1.80;99.90;;;;;;5060120;28;20193;-65
2021/12/23 03:01:12;;;;;;;31.83;16.27;;;-1.80;99.90;;;;;;5072398;28;20213;-63
2021/12/23 03:03:39;;;;;;;32.87;17.23;;;-1.90;99.90;;;;;;5073273;28;20201;-63
2021/12/23 03:06:07;;;;;;;34.83;16.43;;;-1.90;99.90;;;;;;5073054;28;20240;-64
2021/12/23 03:08:35;;;;;;;35.00;17.53;;;-2.00;99.90;;;;;;5073363;28;20229;-65
2021/12/23 03:11:04;;;;;;;38.33;17.40;;;-2.00;99.90;;;;;;5073723;28;20217;-65
2021/12/23 03:13:32;;;;;;;36.17;16.53;;;-2.00;99.90;;;;;;5073594;28;20212;-63
2021/12/23 03:16:00;;;;;;;33.07;16.63;;;-2.00;99.90;;;;;;5073423;28;20204;-64
2021/12/23 03:18:27;;;;;;;29.63;15.00;;;-2.00;99.90;;;;;;5072966;28;20296;-63
2021/12/23 03:20:54;;;;;;;33.70;17.03;;;-2.10;99.90;;;;;;5073670;28;20284;-65
2021/12/23 03:23:21;;;;;;;33.23;16.97;;;-2.10;99.90;;;;;;5073419;28;20284;-64
2021/12/23 03:25:48;;;;;;;34.77;16.93;;;-2.10;99.90;;;;;;5073483;28;20231;-63
2021/12/23 03:28:15;;;;;;;33.40;16.70;;;-2.10;99.90;;;;;;5072217;28;20201;-64
2021/12/23 03:30:43;;;;;;;32.37;17.13;;;-2.10;99.90;;;;;;5072750;28;20207;-64
2021/12/23 03:33:10;;;;;;;36.30;17.30;;;-2.10;99.90;;;;;;5072672;28;20209;-64
2021/12/23 03:35:38;;;;;;;30.83;15.83;;;-2.10;99.90;;;;;;5072492;28;20565;-63
2021/12/23 03:38:06;;;;;;;30.33;15.43;;;-2.10;99.90;;;;;;5080549;28;20205;-64
2021/12/23 03:40:33;;;;;;;29.23;15.80;;;-2.10;99.90;;;;;;5077798;28;20201;-64
2021/12/23 03:43:00;;;;;;;34.43;17.53;;;-2.10;99.90;;;;;;5072018;28;20205;-64
2021/12/23 03:45:27;;;;;;;31.33;16.00;;;-2.20;99.90;;;;;;5071685;28;20209;-64
2021/12/23 03:47:55;;;;;;;33.10;17.53;;;-2.20;99.90;;;;;;5072188;28;20201;-65
2021/12/23 03:50:24;;;;;;;33.67;17.23;;;-2.20;99.90;;;;;;5072047;28;20217;-65
2021/12/23 03:52:52;;;;;;;32.30;16.57;;;-2.20;99.90;;;;;;5077740;28;20211;-64
2021/12/23 03:55:19;;;;;;;34.87;18.00;;;-2.20;99.90;;;;;;5072744;28;20743;-64
2021/12/23 03:57:47;;;;;;;32.17;16.47;;;-2.20;99.90;;;;;;5072856;28;20221;-66
2021/12/23 04:00:16;;;;;;;33.63;16.57;;;-2.20;99.90;;;;;;5072759;28;20205;-65
2021/12/23 04:02:44;;;;;;;33.20;16.70;;;-2.20;99.90;;;;;;5072655;28;20256;-65
2021/12/23 04:05:13;;;;;;;30.10;16.17;;;-2.20;99.90;;;;;;5072248;28;20204;-65
2021/12/23 04:07:40;;;;;;;32.13;16.30;;;-2.20;99.90;;;;;;5075432;28;20220;-64
2021/12/23 04:10:09;;;;;;;33.77;15.77;;;-2.20;99.90;;;;;;5076151;28;20307;-63
2021/12/23 04:12:36;;;;;;;30.30;16.53;;;-2.20;99.90;;;;;;5072437;28;20209;-63
2021/12/23 04:15:04;;;;;;;33.10;16.77;;;-2.20;99.90;;;;;;5072324;28;20571;-64
2021/12/23 04:17:31;;;;;;;30.60;16.33;;;-2.20;99.90;;;;;;5072553;28;20705;-64
2021/12/23 04:20:09;;;;;;;31.03;16.23;;;-2.10;99.90;;;;;;5072515;28;20212;-65
2021/12/23 04:22:37;;;;;;;30.60;16.17;;;-2.10;99.90;;;;;;5072237;28;20242;-64
2021/12/23 04:25:04;;;;;;;29.57;15.43;;;-2.10;99.90;;;;;;5072302;28;20213;-63
2021/12/23 04:27:31;;;;;;;31.03;16.20;;;-2.10;99.90;;;;;;5071302;28;20232;-64
2021/12/23 04:29:58;;;;;;;27.87;15.10;;;-2.00;99.90;;;;;;5071096;28;20702;-64
2021/12/23 04:32:25;;;;;;;31.57;15.73;;;-2.10;99.90;;;;;;5071580;28;20197;-64
2021/12/23 04:34:52;;;;;;;32.07;15.43;;;-2.10;99.90;;;;;;5071853;28;20567;-65
2021/12/23 04:37:19;;;;;;;31.97;16.70;;;-2.10;99.90;;;;;;5071089;28;20227;-65
2021/12/23 04:39:47;;;;;;;30.20;15.97;;;-2.20;99.90;;;;;;5062174;28;20209;-64
2021/12/23 04:42:13;;;;;;;33.13;17.27;;;-2.20;99.90;;;;;;5071192;28;20209;-64
2021/12/23 04:44:40;;;;;;;36.37;17.07;;;-2.20;99.90;;;;;;5071245;28;20580;-63
2021/12/23 04:47:07;;;;;;;30.63;16.83;;;-2.20;99.90;;;;;;5079268;28;20213;-65
2021/12/23 04:49:34;;;;;;;35.03;17.67;;;-2.20;99.90;;;;;;5071822;28;20221;-64
2021/12/23 04:52:01;;;;;;;34.97;17.23;;;-2.20;99.90;;;;;;5071100;28;20556;-65
2021/12/23 04:54:28;;;;;;;30.83;16.90;;;-2.20;99.90;;;;;;5071156;28;20205;-64
2021/12/23 04:56:56;;;;;;;30.90;16.87;;;-2.20;99.90;;;;;;5071978;28;20224;-64
2021/12/23 04:59:23;;;;;;;30.93;17.47;;;-2.20;99.90;;;;;;5072179;28;20201;-64
2021/12/23 05:01:51;;;;;;;35.10;16.43;;;-2.10;99.90;;;;;;5070926;28;20210;-64
2021/12/23 05:04:18;;;;;;;31.50;16.50;;;-2.10;99.90;;;;;;5070718;28;20210;-63
2021/12/23 05:06:45;;;;;;;31.23;16.87;;;-2.20;99.90;;;;;;5071207;28;20215;-63
2021/12/23 05:09:12;;;;;;;31.53;16.87;;;-2.20;99.90;;;;;;5071235;28;20259;-64
2021/12/23 05:11:38;;;;;;;34.37;17.73;;;-2.20;99.90;;;;;;5071349;28;20215;-63
2021/12/23 05:14:07;;;;;;;32.67;16.67;;;-2.20;99.90;;;;;;5071743;28;20202;-64
2021/12/23 05:16:34;;;;;;;32.90;16.87;;;-2.20;99.90;;;;;;5074327;28;20208;-63
2021/12/23 05:19:01;;;;;;;35.70;17.27;;;-2.10;99.90;;;;;;5082224;28;20208;-63
2021/12/23 05:21:28;;;;;;;30.80;17.13;;;-2.10;99.90;;;;;;5070796;28;20209;-63
2021/12/23 05:23:54;;;;;;;33.30;17.10;;;-2.20;99.90;;;;;;5072106;28;20296;-63
2021/12/23 05:26:21;;;;;;;27.03;16.03;;;-2.10;99.90;;;;;;5075184;28;20259;-63
2021/12/23 05:28:48;;;;;;;36.13;16.97;;;-2.10;99.90;;;;;;5074276;28;20207;-63
2021/12/23 05:31:16;;;;;;;30.83;17.10;;;-2.10;99.90;;;;;;5075324;28;20208;-63
2021/12/23 05:33:43;;;;;;;29.70;16.33;;;-2.10;99.90;;;;;;5073780;28;20686;-63
2021/12/23 05:36:10;;;;;;;30.97;17.60;;;-2.10;99.90;;;;;;5074961;28;20539;-63
2021/12/23 05:38:37;;;;;;;33.17;16.97;;;-2.10;99.90;;;;;;5074877;28;20217;-63
2021/12/23 05:41:04;;;;;;;35.40;17.47;;;-2.10;99.90;;;;;;5073994;28;20199;-64
2021/12/23 05:43:30;;;;;;;33.17;16.67;;;-2.10;99.90;;;;;;5074422;28;20205;-63
2021/12/23 05:45:58;;;;;;;33.90;16.63;;;-2.10;99.90;;;;;;5074588;28;20227;-64
2021/12/23 05:48:26;;;;;;;32.97;15.97;;;-2.20;99.90;;;;;;5074144;28;20209;-63
2021/12/23 05:50:53;;;;;;;31.37;16.73;;;-2.20;99.90;;;;;;5074607;28;20746;-65
2021/12/23 05:53:20;;;;;;;32.80;16.07;;;-2.20;99.90;;;;;;5074736;28;20201;-64
2021/12/23 05:55:47;;;;;;;33.13;16.97;;;-2.30;99.90;;;;;;5074799;28;20220;-63
2021/12/23 05:58:14;;;;;;;29.43;17.13;;;-2.30;99.90;;;;;;5074327;28;20205;-64
2021/12/23 06:00:41;;;;;;;30.53;15.60;;;-2.30;99.90;;;;;;5074402;28;20197;-65
2021/12/23 06:03:08;;;;;;;30.53;16.23;;;-2.30;99.90;;;;;;5073340;28;20213;-64
2021/12/23 06:05:36;;;;;;;37.07;15.83;;;-2.30;99.90;;;;;;5061620;28;20292;-64
2021/12/23 06:08:03;;;;;;;34.73;17.10;;;-2.30;99.90;;;;;;5074078;28;20208;-64
2021/12/23 06:10:30;;;;;;;29.30;15.47;;;-2.30;99.90;;;;;;5074715;28;20229;-64
2021/12/23 06:12:57;;;;;;;37.50;18.33;;;-2.30;99.90;;;;;;5074325;28;20205;-64
2021/12/23 06:15:24;;;;;;;34.27;17.17;;;-2.30;99.90;;;;;;5073402;28;20205;-64
2021/12/23 06:17:51;;;;;;;29.97;16.03;;;-2.30;99.90;;;;;;5073749;28;20204;-63
2021/12/23 06:20:18;;;;;;;33.40;17.17;;;-2.20;99.90;;;;;;5073088;28;20567;-65
2021/12/23 06:22:46;;;;;;;31.47;17.60;;;-2.20;99.90;;;;;;5073775;28;20209;-64
2021/12/23 06:25:14;;;;;;;31.63;16.77;;;-2.30;99.90;;;;;;5073352;28;20220;-63
2021/12/23 06:27:42;;;;;;;30.73;16.13;;;-2.30;99.90;;;;;;5073122;28;20212;-64
2021/12/23 06:30:17;;;;;;;32.70;16.77;;;-2.30;99.90;;;;;;5073299;28;20678;-63
2021/12/23 06:32:45;;;;;;;33.10;16.80;;;-2.20;99.90;;;;;;5081879;28;20205;-63
2021/12/23 06:35:12;;;;;;;32.93;17.90;;;-2.20;99.90;;;;;;5073086;28;20662;-64
2021/12/23 06:37:39;;;;;;;32.90;17.43;;;-2.30;99.90;;;;;;5072856;28;20680;-65
2021/12/23 06:40:08;;;;;;;27.23;15.00;;;-2.20;99.90;;;;;;5065540;28;20201;-65
2021/12/23 06:42:35;;;;;;;32.30;16.43;;;-2.20;99.90;;;;;;5072190;28;20211;-64
2021/12/23 06:45:03;;;;;;;32.60;16.73;;;-2.60;99.90;;;;;;5070402;28;20206;-66
2021/12/23 06:47:30;;;;;;;33.90;16.53;;;-2.30;99.90;;;;;;5069270;28;20212;-65
2021/12/23 06:49:57;;;;;;;31.13;16.30;;;-2.30;99.90;;;;;;5071280;28;20450;-66
2021/12/23 06:52:24;;;;;;;31.43;17.03;;;-2.30;99.90;;;;;;5083889;28;20665;-68
2021/12/23 06:54:53;;;;;;;32.40;16.83;;;-2.30;99.90;;;;;;5061261;28;20678;-66
2021/12/23 06:57:22;;;;;;;38.13;17.73;;;-2.30;99.90;;;;;;5060569;28;20225;-67
2021/12/23 06:59:49;;;;;;;32.83;17.23;;;-2.30;99.90;;;;;;5060090;28;20201;-68
2021/12/23 07:02:16;;;;;;;33.67;16.77;;;-2.30;99.90;;;;;;5062114;28;20232;-67
2021/12/23 07:04:44;;;;;;;34.60;17.10;;;-2.30;99.90;;;;;;5066441;28;20670;-66
2021/12/23 07:07:18;;;;;;;32.27;16.43;;;-2.30;99.90;;;;;;5067524;28;20206;-67
2021/12/23 07:09:45;;;;;;;32.77;16.87;;;-2.30;99.90;;;;;;5071767;28;20573;-66
2021/12/23 07:12:13;;;;;;;29.77;16.77;;;-2.20;99.90;;;;;;5074630;28;20211;-66
2021/12/23 07:14:42;;;;;;;36.37;17.70;;;-2.30;99.90;;;;;;5079579;28;20670;-67
2021/12/23 07:17:09;;;;;;;36.17;17.80;;;-2.30;99.90;;;;;;5071739;28;20202;-66
2021/12/23 07:19:36;;;;;;;29.60;16.33;;;-2.20;99.90;;;;;;5072159;28;20379;-65
2021/12/23 07:22:04;;;;;;;31.73;16.90;;;-2.20;99.90;;;;;;5071831;28;20193;-66
2021/12/23 07:24:31;;;;;;;31.00;17.63;;;-2.30;99.90;;;;;;5069797;28;20198;-66
2021/12/23 07:26:58;;;;;;;33.43;15.93;;;-2.30;99.90;;;;;;5075012;28;20387;-66
2021/12/23 07:29:25;;;;;;;37.07;17.07;;;-2.30;99.90;;;;;;5071352;28;20209;-67
2021/12/23 07:31:53;;;;;;;33.17;17.27;;;-2.30;99.90;;;;;;5071524;28;20665;-66
2021/12/23 07:34:21;;;;;;;31.30;16.30;;;-2.80;99.90;;;;;;5057205;28;20260;-65
2021/12/23 07:36:48;;;;;;;36.33;16.63;;;-2.20;99.90;;;;;;5071260;28;20213;-66
2021/12/23 07:39:15;;;;;;;31.97;17.57;;;-2.30;99.90;;;;;;5070383;28;20266;-65
2021/12/23 07:41:42;;;;;;;36.07;18.17;;;-2.30;99.90;;;;;;5072357;28;20205;-65
2021/12/23 07:44:19;;;;;;;35.77;17.63;;;-2.30;99.90;;;;;;5074340;28;20216;-65
2021/12/23 07:46:46;;;;;;;32.97;17.07;;;-2.30;99.90;;;;;;5070596;28;20201;-66
2021/12/23 07:49:15;;;;;;;36.87;17.87;;;-2.30;99.90;;;;;;5070926;28;20292;-65
2021/12/23 07:51:42;;;;;;;28.87;16.70;;;-2.30;99.90;;;;;;5070399;28;20307;-66
2021/12/23 07:54:09;;;;;;;38.13;17.33;;;-2.30;99.90;;;;;;5069357;28;20649;-65
2021/12/23 07:56:36;;;;;;;30.87;17.50;;;-2.30;99.90;;;;;;5071332;28;20597;-64
2021/12/23 07:59:04;;;;;;;32.80;16.17;;;-2.20;99.90;;;;;;5081074;28;20605;-66
2021/12/23 08:01:31;;;;;;;28.77;16.80;;;-2.20;99.90;;;;;;5070672;28;20205;-68
2021/12/23 08:03:58;;;;;;;32.33;17.00;;;-2.20;99.90;;;;;;5070317;28;20534;-67
2021/12/23 08:06:26;;;;;;;33.03;18.27;;;-2.10;99.90;;;;;;5070446;28;20205;-67
2021/12/23 08:08:53;;;;;;;33.90;16.43;;;-2.10;99.90;;;;;;5070220;28;20267;-67
2021/12/23 08:11:20;;;;;;;28.43;16.43;;;-2.10;99.90;;;;;;5069709;28;20297;-66
2021/12/23 08:13:47;;;;;;;33.07;16.23;;;-2.00;99.90;;;;;;5057324;28;20232;-66
2021/12/23 08:16:14;;;;;;;36.03;18.10;;;-2.00;99.90;;;;;;5067284;28;20201;-66
2021/12/23 08:18:41;;;;;;;30.70;17.50;;;-2.00;99.90;;;;;;5067189;28;20296;-66
2021/12/23 08:21:08;;;;;;;34.43;18.20;;;-2.00;99.90;;;;;;5070596;28;20211;-68
2021/12/23 08:23:36;;;;;;;38.33;19.83;;;-2.00;99.90;;;;;;5069993;28;20300;-66
2021/12/23 08:26:10;;;;;;;33.90;16.53;;;-2.00;99.90;;;;;;5069547;28;20241;-65
2021/12/23 08:28:37;;;;;;;33.00;17.73;;;-2.00;99.90;;;;;;5072096;28;20202;-66
2021/12/23 08:31:04;;;;;;;33.67;17.00;;;-2.00;99.90;;;;;;5071203;28;20661;-66
2021/12/23 08:33:31;;;;;;;33.63;16.30;;;-2.00;99.90;;;;;;5069687;28;20209;-67
2021/12/23 08:35:58;;;;;;;32.03;17.37;;;-1.90;99.90;;;;;;5069911;28;20292;-66
2021/12/23 08:38:24;;;;;;;33.20;17.20;;;-1.90;99.90;;;;;;5070371;28;20211;-66
2021/12/23 08:40:53;;;;;;;36.57;17.77;;;-1.80;99.90;;;;;;5069233;28;20193;-65
2021/12/23 08:43:20;;;;;;;29.70;17.27;;;-1.80;99.90;;;;;;5070724;28;20205;-66
2021/12/23 08:45:47;;;;;;;33.87;17.83;;;-1.80;99.90;;;;;;5071849;28;20603;-67
2021/12/23 08:48:14;;;;;;;32.47;16.80;;;;;;;;;;5071071;28;20212;-67
2021/12/23 08:50:41;;;;;;;33.83;16.90;;;-1.80;99.90;;;;;;5071343;28;20719;-66
2021/12/23 08:53:08;;;;;;;36.65;22.65;;;-1.90;99.90;;;;;;5070420;28;20446;-67
2021/12/23 08:55:35;;;;;;;33.07;19.27;;;-1.90;99.90;;;;;;5082566;28;20239;-67
2021/12/23 08:58:04;;;;;;;33.60;17.90;;;-1.90;99.90;;;;;;5070705;28;20235;-65
2021/12/23 09:00:32;;;;;;;34.20;16.87;;;-1.90;99.90;;;;;;5074955;28;20634;-66
2021/12/23 09:02:59;;;;;;;32.83;18.40;;;-1.80;99.90;;;;;;5079317;28;20523;-67
2021/12/23 09:05:26;;;;;;;31.30;17.43;;;-1.80;99.90;;;;;;5079877;28;20209;-66
2021/12/23 09:07:53;;;;;;;36.87;18.83;;;-1.80;99.90;;;;;;5073670;28;20212;-67
2021/12/23 09:10:21;;;;;;;36.80;18.60;;;-1.60;99.90;;;;;;5075005;28;20231;-66
2021/12/23 09:12:48;;;;;;;34.40;17.27;;;-1.50;99.90;;;;;;5075054;28;20205;-66
2021/12/23 09:15:17;;;;;;;32.10;17.83;;;-1.40;99.90;;;;;;5074510;28;20197;-67
2021/12/23 09:17:44;;;;;;;29.73;17.00;;;-1.30;99.90;;;;;;5074626;28;20586;-67
2021/12/23 09:20:13;;;;;;;34.10;18.90;;;-1.20;99.90;;;;;;5074257;28;20197;-67
2021/12/23 09:22:41;;;;;;;32.30;18.23;;;-1.10;99.90;;;;;;5072473;28;20223;-66
2021/12/23 09:25:18;;;;;;;36.97;18.60;;;-1.00;99.90;;;;;;5073643;28;20720;-66
2021/12/23 09:27:56;;;;;;;39.90;19.17;;;-0.90;99.90;;;;;;5073030;28;20205;-66
2021/12/23 09:33:10;;;;;;;30.20;16.43;;;-0.80;99.90;;;;;;5073566;28;20570;-67
2021/12/23 09:35:38;;;;;;;35.10;18.43;;;-0.80;99.90;;;;;;5086810;28;20252;-67
2021/12/23 09:38:07;;;;;;;32.37;18.03;;;-0.80;99.90;;;;;;5082197;28;20263;-68
2021/12/23 09:40:35;;;;;;;36.73;18.73;;;-0.70;99.90;;;;;;5084218;28;20248;-67
2021/12/23 09:43:07;;;;;;;31.70;17.93;;;-0.70;99.90;;;;;;5069415;28;20202;-68
2021/12/23 09:45:46;;;;;;;35.47;18.13;;;-0.50;99.90;;;;;;5093115;28;20718;-67
2021/12/23 09:48:14;;;;;;;36.00;18.00;;;-0.30;99.90;;;;;;5085929;28;20607;-66
2021/12/23 09:50:42;;;;;;;33.47;18.07;;;-0.30;99.90;;;;;;5074042;28;20713;-66
2021/12/23 09:53:10;;;;;;;32.10;17.53;;;-0.10;99.90;;;;;;5073826;28;20213;-65
2021/12/23 09:55:37;;;;;;;34.33;17.17;;;-0.10;99.90;;;;;;5074610;28;20205;-66
2021/12/23 09:58:06;;;;;;;33.87;18.57;;;-0.10;99.90;;;;;;5074167;28;20231;-65
2021/12/23 10:00:37;;;;;;;34.10;18.30;;;0.00;99.90;;;;;;5081367;28;20193;-63
2021/12/23 10:03:05;;;;;;;40.27;19.77;;;0.10;99.90;;;;;;5074452;28;20288;-66
2021/12/23 10:05:34;;;;;;;39.27;18.43;;;0.20;99.90;;;;;;5084053;28;20208;-65
2021/12/23 10:08:02;;;;;;;36.87;19.10;;;0.20;99.90;;;;;;5072759;28;20209;-66
2021/12/23 10:10:34;;;;;;;34.60;17.93;;;0.20;99.90;;;;;;5066421;28;20233;-66
2021/12/23 10:30:24;;;;;;;30.20;17.13;;;1.90;99.90;;;;;;5072389;28;20588;-64
2021/12/23 10:38:36;;;;;;;32.53;17.40;;;2.40;99.30;;;;;;5068953;28;20191;-66
2021/12/23 10:41:06;;;;;;;35.17;18.23;;;2.30;98.30;;;;;;5064044;28;20209;-65
2021/12/23 10:43:36;;;;;;;32.30;17.37;;;2.20;98.00;;;;;;5062151;28;20260;-64
2021/12/23 10:46:07;;;;;;;31.67;17.40;;;2.10;98.30;;;;;;5063442;28;20321;-64
2021/12/23 10:48:45;;;;;;;31.93;18.80;;;2.30;98.60;;;;;;5061035;28;20208;-63
2021/12/23 10:51:17;;;;;;;33.30;18.33;;;2.40;98.10;;;;;;5057419;28;20305;-63
2021/12/23 10:53:58;;;;;;;34.90;18.23;;;2.50;97.60;;;;;;5061564;28;20605;-64
2021/12/23 10:59:15;;;;;;;38.17;18.83;;;2.60;96.90;;;;;;5075763;28;20577;-64
2021/12/23 11:02:20;;;;;;;32.83;17.67;;;2.80;97.10;;;;;;5071185;28;20208;-65
2021/12/23 11:05:02;;;;;;;32.70;17.90;;;3.10;96.70;;;;;;5053953;28;20292;-62
2021/12/23 11:07:41;;;;;;;33.87;18.23;;;3.40;96.00;;;;;;5063634;28;20205;-65
2021/12/23 11:10:17;;;;;;;31.13;17.63;;;3.70;95.40;;;;;;5059884;28;20229;-65
2021/12/23 11:38:28;;;;;;;31.73;16.93;;;2.80;92.00;;;;;;5062841;28;20202;-67
2021/12/23 11:40:59;;;;;;;32.63;17.23;;;2.60;92.40;;;;;;5069966;28;20201;-66
2021/12/23 11:43:31;;;;;;;28.60;16.70;;;2.40;92.90;;;;;;5071822;28;20197;-67
2021/12/23 11:45:59;;;;;;;32.80;17.10;;;2.30;93.00;;;;;;5071615;28;20208;-66
2021/12/23 11:48:26;;;;;;;32.80;17.87;;;2.20;93.40;;;;;;5072562;28;20327;-66
2021/12/23 11:51:06;;;;;;;27.90;15.03;;;2.10;93.30;;;;;;5073295;28;20769;-67
2021/12/23 11:53:35;;;;;;;29.50;15.70;;;1.90;93.60;;;;;;5073977;28;20193;-65
2021/12/23 11:56:07;;;;;;;29.97;16.37;;;1.80;93.70;;;;;;5071492;28;20213;-65
2021/12/23 11:58:34;;;;;;;25.07;14.57;;;1.60;93.70;;;;;;5071219;28;20205;-65
2021/12/23 12:01:07;;;;;;;29.27;14.80;;;1.50;94.30;;;;;;5071760;28;20258;-65
2021/12/23 12:03:40;;;;;;;28.63;15.13;;;1.20;94.50;;;;;;5071147;28;20857;-65
2021/12/23 12:06:15;;;;;;;28.67;14.90;;;1.20;94.80;;;;;;5072242;28;20272;-65
2021/12/23 12:08:44;;;;;;;28.23;15.47;;;1.00;94.90;;;;;;5072092;28;20288;-63
2021/12/23 12:11:16;;;;;;;26.43;15.57;;;0.90;95.50;;;;;;5071946;28;20221;-66
2021/12/23 12:13:43;;;;;;;27.90;14.77;;;0.90;96.00;;;;;;5071027;28;20216;-65
2021/12/23 12:16:29;;;;;;;26.70;15.10;;;0.80;96.30;;;;;;5071533;28;20659;-64
2021/12/23 12:18:56;;;;;;;25.97;14.53;;;0.80;96.50;;;;;;5072931;28;20204;-65
2021/12/23 12:21:27;;;;;;;28.57;15.43;;;0.80;96.70;;;;;;5072932;28;20216;-64
2021/12/23 12:24:14;;;;;;;26.90;14.53;;;0.70;96.90;;;;;;5071270;28;20215;-64
2021/12/23 12:27:01;;;;;;;28.13;15.17;;;0.70;96.90;;;;;;5070914;28;20650;-64
2021/12/23 12:29:35;;;;;;;27.50;15.37;;;0.80;97.00;;;;;;5058831;28;20200;-64
2021/12/23 12:32:03;;;;;;;27.47;14.83;;;0.80;97.10;;;;;;5070768;28;20217;-65
2021/12/23 12:34:37;;;;;;;25.93;14.87;;;0.80;97.30;;;;;;5077723;28;20211;-64
2021/12/23 12:37:07;;;;;;;26.27;14.80;;;0.80;97.20;;;;;;5078313;28;20292;-66
2021/12/23 12:39:40;;;;;;;25.40;14.53;;;0.80;97.60;;;;;;5078336;28;20221;-66
2021/12/23 12:42:11;;;;;;;25.83;15.03;;;0.80;97.50;;;;;;5079227;28;20200;-66
2021/12/23 12:44:46;;;;;;;28.27;14.50;;;0.70;97.40;;;;;;5064968;28;20205;-66
2021/12/23 12:47:23;;;;;;;25.30;14.03;;;0.70;97.60;;;;;;5078046;28;20211;-64
2021/12/23 12:49:53;;;;;;;25.27;14.00;;;0.70;97.90;;;;;;5075347;28;20208;-66
2021/12/23 12:52:23;;;;;;;25.37;14.43;;;0.60;97.70;;;;;;5078037;28;20225;-66
2021/12/23 12:54:57;;;;;;;26.27;13.80;;;0.60;97.90;;;;;;5076831;28;20211;-66
2021/12/23 12:57:31;;;;;;;25.60;14.33;;;0.60;98.10;;;;;;5077244;28;20223;-65
2021/12/23 13:00:00;;;;;;;23.00;13.73;;;0.60;98.40;;;;;;5078343;28;20282;-65
2021/12/23 13:02:33;;;;;;;27.67;15.10;;;0.60;98.30;;;;;;5077919;28;20205;-65
2021/12/23 13:05:03;;;;;;;25.03;13.70;;;0.70;98.40;;;;;;5077901;28;20247;-64
2021/12/23 13:07:34;;;;;;;26.23;14.67;;;0.70;98.50;;;;;;5078199;28;20832;-66
2021/12/23 13:10:10;;;;;;;25.33;13.20;;;0.70;98.40;;;;;;5078613;28;20244;-64
2021/12/23 13:12:46;;;;;;;26.03;13.57;;;0.80;98.40;;;;;;5078059;28;20544;-65
2021/12/23 13:15:19;;;;;;;27.00;14.03;;;0.80;98.30;;;;;;5078837;28;20296;-66
2021/12/23 13:18:02;;;;;;;25.87;12.33;;;0.80;98.20;;;;;;5078926;28;20207;-65
2021/12/23 13:20:41;;;;;;;23.60;12.60;;;0.80;98.00;;;;;;5075391;28;20216;-67
2021/12/23 13:23:14;;;;;;;20.90;11.93;;;0.80;98.20;;;;;;5077555;28;20236;-67
2021/12/23 13:26:05;;;;;;;20.17;11.57;;;0.70;97.90;;;;;;5077104;28;20264;-65
2021/12/23 13:28:36;;;;;;;25.47;13.00;;;0.70;98.10;;;;;;5073547;28;20213;-66
2021/12/23 13:31:04;;;;;;;21.10;12.00;;;0.70;98.10;;;;;;5064509;28;20212;-65
2021/12/23 13:33:40;;;;;;;20.13;11.63;;;0.70;98.10;;;;;;5077067;28;20201;-66
2021/12/23 13:36:14;;;;;;;22.13;11.67;;;0.70;98.10;;;;;;5077835;28;20199;-65